createdAt,value
2023-04-02T00:01:04.906Z,86.80
2023-04-02T00:04:12.065Z,87.12
2023-04-02T00:07:33.755Z,88.01
2023-04-02T00:10:46.168Z,87.98
2023-04-02T00:13:48.367Z,87.84
2023-04-02T00:16:52.146Z,87.28
2023-04-02T00:19:54.304Z,86.77
2023-04-02T00:22:56.780Z,87.16
2023-04-02T00:25:58.875Z,86.92
2023-04-02T00:29:02.078Z,86.92
2023-04-02T00:32:04.575Z,87.18
2023-04-02T00:35:12.221Z,86.53
2023-04-02T00:38:29.615Z,86.89
2023-04-02T00:41:36.133Z,86.80
2023-04-02T00:44:42.856Z,85.37
2023-04-02T00:47:45.523Z,86.23
2023-04-02T00:50:47.968Z,85.44
2023-04-02T00:53:52.409Z,85.47
2023-04-02T00:56:55.683Z,86.60
2023-04-02T00:59:58.181Z,85.59
2023-04-02T01:03:22.991Z,85.07
2023-04-02T01:06:31.121Z,84.89
2023-04-02T01:09:51.759Z,84.24
2023-04-02T01:13:04.620Z,84.78
2023-04-02T01:16:39.317Z,84.66
2023-04-02T01:19:42.463Z,85.14
2023-04-02T01:22:51.055Z,85.08
2023-04-02T01:25:56.427Z,85.05
2023-04-02T01:29:01.592Z,83.41
2023-04-02T01:32:09.003Z,83.68
2023-04-02T01:35:12.085Z,84.00
2023-04-02T01:38:21.168Z,83.64
2023-04-02T01:41:31.908Z,82.73
2023-04-02T01:44:41.704Z,83.47
2023-04-02T01:47:44.814Z,83.34
2023-04-02T01:50:49.872Z,83.84
2023-04-02T01:53:52.012Z,82.90
2023-04-02T01:56:55.658Z,82.79
2023-04-02T01:59:59.143Z,82.91
2023-04-02T02:03:02.525Z,83.33
2023-04-02T02:06:05.835Z,83.74
2023-04-02T02:09:12.538Z,83.39
2023-04-02T02:12:15.778Z,82.59
2023-04-02T02:15:22.517Z,82.67
2023-04-02T02:18:26.284Z,83.42
2023-04-02T02:21:35.516Z,83.04
2023-04-02T02:24:38.660Z,82.62
2023-04-02T02:27:44.766Z,82.47
2023-04-02T02:30:57.270Z,83.01
2023-04-02T02:34:04.305Z,82.80
2023-04-02T02:37:12.528Z,83.06
2023-04-02T02:40:21.564Z,83.57
2023-04-02T02:43:24.701Z,83.16
2023-04-02T02:46:27.535Z,83.55
2023-04-02T02:49:32.066Z,83.85
2023-04-02T02:52:38.709Z,84.65
2023-04-02T02:55:41.633Z,85.11
2023-04-02T02:58:44.539Z,84.62
2023-04-02T03:01:48.174Z,85.09
2023-04-02T03:04:53.089Z,84.64
2023-04-02T03:07:57.787Z,85.18
2023-04-02T03:11:05.729Z,85.33
2023-04-02T03:14:22.961Z,85.55
2023-04-02T03:17:41.132Z,85.65
2023-04-02T03:20:48.083Z,86.71
2023-04-02T03:23:57.597Z,86.61
2023-04-02T03:27:16.338Z,87.46
2023-04-02T03:30:22.049Z,86.93
2023-04-02T03:33:30.066Z,87.67
2023-04-02T03:36:35.337Z,87.97
2023-04-02T03:39:54.694Z,86.64
2023-04-02T03:43:03.631Z,87.71
2023-04-02T03:46:18.544Z,86.26
2023-04-02T03:49:27.957Z,86.46
2023-04-02T03:52:31.075Z,87.05
2023-04-02T03:55:37.243Z,88.45
2023-04-02T03:58:44.265Z,87.75
2023-04-02T04:01:52.109Z,86.98
2023-04-02T04:04:56.212Z,86.70
2023-04-02T04:08:03.564Z,87.98
2023-04-02T04:11:09.945Z,86.56
2023-04-02T04:14:28.759Z,85.42
2023-04-02T04:17:34.954Z,86.13
2023-04-02T04:21:00.831Z,84.74
2023-04-02T04:24:16.450Z,84.61
2023-04-02T04:27:24.068Z,84.22
2023-04-02T04:30:30.797Z,84.35
2023-04-02T04:33:40.024Z,85.38
2023-04-02T04:36:53.976Z,85.41
2023-04-02T04:40:04.163Z,84.33
2023-04-02T04:43:11.131Z,83.51
2023-04-02T04:46:46.850Z,81.62
2023-04-02T04:50:09.277Z,83.76
2023-04-02T04:53:20.899Z,83.22
2023-04-02T04:56:26.818Z,84.26
2023-04-02T04:59:32.456Z,83.23
2023-04-02T05:02:41.133Z,83.31
2023-04-02T05:05:44.317Z,83.09
2023-04-02T05:08:51.700Z,84.31
2023-04-02T05:12:18.196Z,82.73
2023-04-02T05:15:30.543Z,82.17
2023-04-02T05:18:39.004Z,80.61
2023-04-02T05:21:42.037Z,78.95
2023-04-02T05:24:44.278Z,68.47
2023-04-02T05:27:47.173Z,59.11
2023-04-02T05:30:52.861Z,51.30
2023-04-02T05:33:56.526Z,47.18
2023-04-02T05:36:58.941Z,45.29
2023-04-02T05:40:13.478Z,44.09
2023-04-02T05:43:19.360Z,41.24
2023-04-02T05:46:28.481Z,39.63
2023-04-02T05:49:42.959Z,37.29
2023-04-02T05:52:48.763Z,35.54
2023-04-02T05:56:11.450Z,36.70
2023-04-02T05:59:19.578Z,40.16
2023-04-02T06:02:42.689Z,45.85
2023-04-02T06:05:46.697Z,50.41
2023-04-02T06:08:52.491Z,49.89
2023-04-02T06:12:13.727Z,52.02
2023-04-02T06:15:21.575Z,53.28
2023-04-02T06:18:28.896Z,51.98
2023-04-02T06:21:31.645Z,47.19
2023-04-02T06:24:36.105Z,46.88
2023-04-02T06:27:40.089Z,48.87
2023-04-02T06:30:43.462Z,50.71
2023-04-02T06:33:46.219Z,52.11
2023-04-02T06:36:50.408Z,54.45
2023-04-02T06:39:52.849Z,54.13
2023-04-02T06:42:59.752Z,55.87
2023-04-02T06:46:15.294Z,54.57
2023-04-02T06:49:28.770Z,55.41
2023-04-02T06:52:35.177Z,55.31
2023-04-02T06:55:47.660Z,55.31
2023-04-02T06:58:51.314Z,53.75
2023-04-02T07:02:12.952Z,54.02
2023-04-02T07:05:16.574Z,55.25
2023-04-02T07:08:19.558Z,55.56
2023-04-02T07:11:22.901Z,55.25
2023-04-02T07:14:25.774Z,55.70
2023-04-02T07:17:27.995Z,56.02
2023-04-02T07:20:31.715Z,55.67
2023-04-02T07:23:34.060Z,55.25
2023-04-02T07:26:36.557Z,56.73
2023-04-02T07:29:43.384Z,56.19
2023-04-02T07:32:45.891Z,55.27
2023-04-02T07:35:49.338Z,56.67
2023-04-02T07:38:52.289Z,56.02
2023-04-02T07:41:55.414Z,55.80
2023-04-02T07:45:00.118Z,54.81
2023-04-02T07:48:06.968Z,54.36
2023-04-02T07:51:20.599Z,53.68
2023-04-02T07:54:22.749Z,53.53
2023-04-02T07:57:25.161Z,53.94
2023-04-02T08:00:28.708Z,54.91
2023-04-02T08:03:31.338Z,54.11
2023-04-02T08:06:33.550Z,52.02
2023-04-02T08:09:36.112Z,52.45
2023-04-02T08:12:38.513Z,53.09
2023-04-02T08:15:41.184Z,51.87
2023-04-02T08:18:43.552Z,52.55
2023-04-02T08:21:46.122Z,52.47
2023-04-02T08:24:48.124Z,52.28
2023-04-02T08:27:50.642Z,51.75
2023-04-02T08:30:52.841Z,51.05
2023-04-02T08:33:56.829Z,52.01
2023-04-02T08:36:59.162Z,52.31
2023-04-02T08:40:01.556Z,51.06
2023-04-02T08:43:18.973Z,49.96
2023-04-02T08:46:37.680Z,49.79
2023-04-02T08:49:43.976Z,50.85
2023-04-02T08:52:46.663Z,51.74
2023-04-02T08:55:55.787Z,50.88
2023-04-02T08:59:01.868Z,52.56
2023-04-02T09:02:22.958Z,50.81
2023-04-02T09:05:28.246Z,50.31
2023-04-02T09:08:31.541Z,50.03
2023-04-02T09:11:38.342Z,50.77
2023-04-02T09:14:44.845Z,50.07
2023-04-02T09:17:54.013Z,51.28
2023-04-02T09:20:56.327Z,49.57
2023-04-02T09:23:58.655Z,49.96
2023-04-02T09:27:01.324Z,49.34
2023-04-02T09:30:04.078Z,48.72
2023-04-02T09:33:09.550Z,49.51
2023-04-02T09:36:19.814Z,50.98
2023-04-02T09:39:28.081Z,50.54
2023-04-02T09:42:36.258Z,50.97
2023-04-02T09:45:38.955Z,50.21
2023-04-02T09:48:58.079Z,49.57
2023-04-02T09:52:08.908Z,51.50
2023-04-02T09:55:14.537Z,50.91
2023-04-02T09:58:17.038Z,51.50
2023-04-02T10:01:39.395Z,52.93
2023-04-02T10:04:47.321Z,53.21
2023-04-02T10:07:50.922Z,54.55
2023-04-02T10:10:55.277Z,53.46
2023-04-02T10:13:59.024Z,55.10
2023-04-02T10:17:05.994Z,54.49
2023-04-02T10:20:20.112Z,55.44
2023-04-02T10:23:24.789Z,54.82
2023-04-02T10:26:33.776Z,54.42
2023-04-02T10:29:42.104Z,54.72
2023-04-02T10:32:55.767Z,54.03
2023-04-02T10:36:23.838Z,54.93
2023-04-02T10:39:34.519Z,53.69
2023-04-02T10:42:46.242Z,53.44
2023-04-02T10:45:56.586Z,54.87
2023-04-02T10:48:58.904Z,53.33
2023-04-02T10:52:19.894Z,55.08
2023-04-02T10:55:25.457Z,54.18
2023-04-02T10:58:30.069Z,54.03
2023-04-02T11:01:34.572Z,52.63
2023-04-02T11:04:41.665Z,51.03
2023-04-02T11:07:55.776Z,51.99
2023-04-02T11:10:57.762Z,53.38
2023-04-02T11:14:00.524Z,53.63
2023-04-02T11:17:05.345Z,54.85
2023-04-02T11:20:26.549Z,52.79
2023-04-02T11:23:33.559Z,50.51
2023-04-02T11:26:37.476Z,49.24
2023-04-02T11:29:48.005Z,50.14
2023-04-02T11:32:51.277Z,48.96
2023-04-02T11:35:53.439Z,49.30
2023-04-02T11:39:01.914Z,50.05
2023-04-02T11:42:19.107Z,50.59
2023-04-02T11:45:21.578Z,51.44
2023-04-02T11:48:23.625Z,52.20
2023-04-02T11:51:32.196Z,51.43
2023-04-02T11:54:37.077Z,53.10
2023-04-02T11:57:45.381Z,50.33
2023-04-02T12:01:05.686Z,47.34
2023-04-02T12:04:26.876Z,49.52
2023-04-02T12:07:52.134Z,49.37
2023-04-02T12:10:59.654Z,49.60
2023-04-02T12:14:02.993Z,49.95
2023-04-02T12:17:16.210Z,48.79
2023-04-02T12:20:23.159Z,48.22
2023-04-02T12:23:33.073Z,48.44
2023-04-02T12:26:38.596Z,47.35
2023-04-02T12:29:41.506Z,47.05
2023-04-02T12:32:43.629Z,47.90
2023-04-02T12:35:47.084Z,48.49
2023-04-02T12:38:51.332Z,47.72
2023-04-02T12:41:53.785Z,47.98
2023-04-02T12:44:56.017Z,47.64
2023-04-02T12:48:01.329Z,49.08
2023-04-02T12:51:04.188Z,48.73
2023-04-02T12:54:07.098Z,48.00
2023-04-02T12:57:27.799Z,48.03
2023-04-02T13:00:31.630Z,48.53
2023-04-02T13:03:33.804Z,49.29
2023-04-02T13:06:36.487Z,47.53
2023-04-02T13:09:46.235Z,46.89
2023-04-02T13:12:49.016Z,46.24
2023-04-02T13:16:06.448Z,49.09
2023-04-02T13:19:20.641Z,49.28
2023-04-02T13:22:32.049Z,48.02
2023-04-02T13:25:36.149Z,49.13
2023-04-02T13:28:38.689Z,48.31
2023-04-02T13:31:41.520Z,49.97
2023-04-02T13:34:43.614Z,48.80
2023-04-02T13:37:46.057Z,49.21
2023-04-02T13:40:48.224Z,48.49
2023-04-02T13:43:50.883Z,48.79
2023-04-02T13:46:53.827Z,48.07
2023-04-02T13:49:56.156Z,49.11
2023-04-02T13:53:00.361Z,47.58
2023-04-02T13:56:02.845Z,48.31
2023-04-02T13:59:05.239Z,49.23
2023-04-02T14:02:13.991Z,50.66
2023-04-02T14:05:29.071Z,49.84
2023-04-02T14:08:39.040Z,51.06
2023-04-02T14:11:43.934Z,51.97
2023-04-02T14:15:05.035Z,51.99
2023-04-02T14:18:15.450Z,50.88
2023-04-02T14:21:26.606Z,50.78
2023-04-02T14:24:45.413Z,52.85
2023-04-02T14:27:47.440Z,53.38
2023-04-02T14:30:52.939Z,54.84
2023-04-02T14:33:56.961Z,55.35
2023-04-02T14:37:01.489Z,55.09
2023-04-02T14:40:12.423Z,55.77
2023-04-02T14:43:17.802Z,56.22
2023-04-02T14:46:26.090Z,55.58
2023-04-02T14:49:39.630Z,56.25
2023-04-02T14:52:44.194Z,56.35
2023-04-02T14:55:48.457Z,57.50
2023-04-02T14:58:54.391Z,58.54
2023-04-02T15:02:14.149Z,60.33
2023-04-02T15:05:19.015Z,61.68
2023-04-02T15:08:24.214Z,62.69
2023-04-02T15:11:29.380Z,62.95
2023-04-02T15:14:35.089Z,64.06
2023-04-02T15:17:37.418Z,65.75
2023-04-02T15:20:43.557Z,67.99
2023-04-02T15:24:01.800Z,66.40
2023-04-02T15:27:24.446Z,75.46
2023-04-02T15:30:35.472Z,84.49
2023-04-02T15:33:38.074Z,92.20
2023-04-02T15:37:01.292Z,95.03
2023-04-02T15:40:03.646Z,97.67
2023-04-02T15:43:24.677Z,100.00
2023-04-02T15:46:36.448Z,100.00
2023-04-02T15:49:57.308Z,100.00
2023-04-02T15:53:08.601Z,100.00
2023-04-02T15:56:26.601Z,100.00
2023-04-02T15:59:48.053Z,100.00
2023-04-02T16:03:08.979Z,100.00
2023-04-02T16:06:17.292Z,100.00
2023-04-02T16:09:27.367Z,100.00
2023-04-02T16:12:30.941Z,100.00
2023-04-02T16:15:38.581Z,100.00
2023-04-02T16:18:51.903Z,100.00
2023-04-02T16:22:01.671Z,100.00
2023-04-02T16:25:14.025Z,100.00
2023-04-02T16:28:22.192Z,100.00
2023-04-02T16:31:36.820Z,100.00
2023-04-02T16:35:09.516Z,100.00
2023-04-02T16:38:39.023Z,100.00
2023-04-02T16:41:41.050Z,100.00
2023-04-02T16:44:50.404Z,100.00
2023-04-02T16:48:07.925Z,100.00
2023-04-02T16:51:35.670Z,100.00
2023-04-02T16:54:59.912Z,100.00
2023-04-02T16:58:11.633Z,100.00
2023-04-02T17:01:25.687Z,100.00
2023-04-02T17:04:39.717Z,100.00
2023-04-02T17:07:54.533Z,100.00
2023-04-02T17:10:59.678Z,100.00
2023-04-02T17:14:06.131Z,100.00
2023-04-02T17:17:10.494Z,100.00
2023-04-02T17:20:19.054Z,100.00
2023-04-02T17:23:21.900Z,100.00
2023-04-02T17:26:28.419Z,100.00
2023-04-02T17:29:38.867Z,100.00
2023-04-02T17:32:41.175Z,100.00
2023-04-02T17:36:02.809Z,100.00
2023-04-02T17:39:11.188Z,100.00
2023-04-02T17:42:21.462Z,97.13
2023-04-02T17:45:43.801Z,94.11
2023-04-02T17:48:47.708Z,92.69
2023-04-02T17:52:08.647Z,88.87
2023-04-02T17:55:11.111Z,85.78
2023-04-02T17:58:26.502Z,84.72
2023-04-02T18:01:34.942Z,81.29
2023-04-02T18:04:37.274Z,88.09
2023-04-02T18:08:02.596Z,85.11
2023-04-02T18:11:09.999Z,87.38
2023-04-02T18:14:35.611Z,87.58
2023-04-02T18:17:47.755Z,80.51
2023-04-02T18:21:02.320Z,80.80
2023-04-02T18:24:24.942Z,83.42
2023-04-02T18:27:32.996Z,85.38
2023-04-02T18:30:39.105Z,86.08
2023-04-02T18:33:56.892Z,83.81
2023-04-02T18:37:28.527Z,90.05
2023-04-02T18:40:37.556Z,83.68
2023-04-02T18:44:04.126Z,90.31
2023-04-02T18:47:06.178Z,78.43
2023-04-02T18:50:23.886Z,83.35
2023-04-02T18:53:26.494Z,85.06
2023-04-02T18:56:30.472Z,82.61
2023-04-02T18:59:38.106Z,81.23
2023-04-02T19:02:42.967Z,87.64
2023-04-02T19:06:05.516Z,81.83
2023-04-02T19:09:32.259Z,83.84
2023-04-02T19:12:35.555Z,86.32
2023-04-02T19:15:43.250Z,83.43
2023-04-02T19:19:04.081Z,85.85
2023-04-02T19:22:12.566Z,82.28
2023-04-02T19:25:36.636Z,84.85
2023-04-02T19:28:43.325Z,85.39
2023-04-02T19:31:52.437Z,80.93
2023-04-02T19:35:04.923Z,81.42
2023-04-02T19:38:12.822Z,78.83
2023-04-02T19:41:26.514Z,76.75
2023-04-02T19:44:28.577Z,76.92
2023-04-02T19:47:31.052Z,75.00
2023-04-02T19:50:33.179Z,75.28
2023-04-02T19:53:37.382Z,77.35
2023-04-02T19:56:39.825Z,77.35
2023-04-02T19:59:42.324Z,75.66
2023-04-02T20:02:44.443Z,79.12
2023-04-02T20:05:46.822Z,77.08
2023-04-02T20:08:48.926Z,77.91
2023-04-02T20:11:51.439Z,74.59
2023-04-02T20:14:55.858Z,75.14
2023-04-02T20:17:58.257Z,78.81
2023-04-02T20:21:04.301Z,76.78
2023-04-02T20:24:07.442Z,74.44
2023-04-02T20:27:09.650Z,78.39
2023-04-02T20:30:12.250Z,77.13
2023-04-02T20:33:14.468Z,74.90
2023-04-02T20:36:17.687Z,75.26
2023-04-02T20:39:20.382Z,77.43
2023-04-02T20:42:22.809Z,76.91
2023-04-02T20:45:27.779Z,77.37
2023-04-02T20:48:33.224Z,73.17
2023-04-02T20:51:35.384Z,72.47
2023-04-02T20:54:37.785Z,73.68
2023-04-02T20:57:39.801Z,74.33
2023-04-02T21:00:42.242Z,74.30
2023-04-02T21:03:44.782Z,74.95
2023-04-02T21:06:47.401Z,75.65
2023-04-02T21:09:49.412Z,72.94
2023-04-02T21:12:51.769Z,73.32
2023-04-02T21:15:53.832Z,72.52
2023-04-02T21:18:58.346Z,73.66
2023-04-02T21:22:00.561Z,72.68
2023-04-02T21:25:02.983Z,73.13
2023-04-02T21:28:05.051Z,72.89
2023-04-02T21:31:07.384Z,74.12
2023-04-02T21:34:12.642Z,74.47
2023-04-02T21:37:15.464Z,72.45
2023-04-02T21:40:17.599Z,73.29
2023-04-02T21:43:20.344Z,72.64
2023-04-02T21:46:23.622Z,72.23
2023-04-02T21:49:27.218Z,72.41
2023-04-02T21:52:29.275Z,72.98
2023-04-02T21:55:31.946Z,71.87
2023-04-02T21:58:34.491Z,71.10
2023-04-02T22:01:39.064Z,71.94
2023-04-02T22:04:41.873Z,72.03
2023-04-02T22:07:44.152Z,73.24
2023-04-02T22:10:46.520Z,70.96
2023-04-02T22:13:49.687Z,71.26
2023-04-02T22:16:52.380Z,70.75
2023-04-02T22:19:54.705Z,68.27
2023-04-02T22:22:57.165Z,68.94
2023-04-02T22:26:00.408Z,71.38
2023-04-02T22:29:05.792Z,71.45
2023-04-02T22:32:07.844Z,70.43
2023-04-02T22:35:10.349Z,71.59
2023-04-02T22:38:12.439Z,70.07
2023-04-02T22:41:16.709Z,67.24
2023-04-02T22:44:18.803Z,70.10
2023-04-02T22:47:21.603Z,71.10
2023-04-02T22:50:24.307Z,70.17
2023-04-02T22:53:26.751Z,71.95
2023-04-02T22:56:32.170Z,68.77
2023-04-02T22:59:34.758Z,67.33
2023-04-02T23:02:37.088Z,72.07
2023-04-02T23:05:39.852Z,67.64
2023-04-02T23:08:42.293Z,70.13
2023-04-02T23:11:44.841Z,71.41
2023-04-02T23:14:47.095Z,69.20
2023-04-02T23:17:49.576Z,67.52
2023-04-02T23:20:51.704Z,65.82
2023-04-02T23:23:54.324Z,65.12
2023-04-02T23:26:56.397Z,64.46
2023-04-02T23:29:58.777Z,63.96
2023-04-02T23:33:02.201Z,67.12
2023-04-02T23:36:06.693Z,65.28
2023-04-02T23:39:11.485Z,67.04
2023-04-02T23:42:13.906Z,65.29
2023-04-02T23:45:16.264Z,64.99
2023-04-02T23:48:18.710Z,66.17
2023-04-02T23:51:20.730Z,66.19
2023-04-02T23:54:23.143Z,64.14
2023-04-02T23:57:25.239Z,65.60
